createdAt,value
2022-11-12T00:08:19.074Z,11.13
2022-11-12T00:18:40.817Z,8.20
2022-11-12T00:29:04.073Z,12.00
2022-11-12T00:39:25.932Z,8.10
2022-11-12T00:49:49.012Z,9.00
2022-11-12T01:00:17.393Z,9.60
2022-11-12T01:10:40.047Z,11.93
2022-11-12T01:21:03.024Z,13.53
2022-11-12T01:31:28.328Z,9.67
2022-11-12T01:41:50.235Z,14.03
2022-11-12T01:52:18.516Z,10.03
2022-11-12T02:02:41.478Z,10.40
2022-11-12T02:13:22.114Z,12.33
2022-11-12T02:23:45.263Z,10.33
2022-11-12T02:34:06.756Z,10.17
2022-11-12T02:44:31.298Z,7.97
2022-11-12T02:54:53.450Z,9.90
2022-11-12T03:05:16.279Z,8.63
2022-11-12T03:15:37.843Z,8.80
2022-11-12T03:26:04.836Z,7.73
2022-11-12T03:36:26.761Z,9.03
2022-11-12T03:46:50.042Z,6.20
2022-11-12T03:57:12.490Z,7.37
2022-11-12T04:07:52.922Z,4.70
2022-11-12T04:18:32.285Z,6.73
2022-11-12T04:29:12.934Z,8.80
2022-11-12T04:39:34.902Z,6.77
2022-11-12T04:49:57.936Z,5.43
2022-11-12T05:00:20.031Z,7.60
2022-11-12T05:10:43.214Z,6.23
2022-11-12T05:21:25.200Z,6.87
2022-11-12T05:31:48.666Z,4.70
2022-11-12T05:42:13.497Z,4.37
2022-11-12T05:52:37.384Z,5.80
2022-11-12T06:02:59.424Z,4.70
2022-11-12T06:13:24.232Z,8.47
2022-11-12T06:23:46.715Z,5.70
2022-11-12T06:34:10.061Z,6.07
2022-11-12T06:44:31.534Z,5.70
2022-11-12T06:54:54.960Z,5.00
2022-11-12T07:05:16.800Z,10.93
2022-11-12T07:15:39.954Z,12.57
2022-11-12T07:26:04.096Z,10.53
2022-11-12T07:36:28.018Z,5.33
2022-11-12T07:46:49.570Z,5.70
2022-11-12T07:57:12.930Z,8.20
2022-11-12T08:07:34.553Z,7.63
2022-11-12T08:17:57.523Z,4.93
2022-11-12T08:28:19.156Z,5.93
2022-11-12T08:38:43.059Z,6.57
2022-11-12T08:49:07.145Z,5.17
2022-11-12T08:59:30.439Z,4.63
2022-11-12T09:09:52.092Z,5.90
2022-11-12T09:20:15.807Z,7.17
2022-11-12T09:30:38.305Z,4.83
2022-11-12T09:41:16.249Z,4.23
2022-11-12T09:51:42.659Z,5.37
2022-11-12T10:02:26.273Z,5.33
2022-11-12T10:13:07.008Z,4.70
2022-11-12T10:23:42.368Z,4.60
2022-11-12T10:34:16.117Z,3.67
2022-11-12T10:44:40.859Z,4.37
2022-11-12T10:55:08.860Z,3.57
2022-11-12T11:05:35.629Z,3.73
2022-11-12T11:16:01.917Z,3.67
2022-11-12T11:26:33.950Z,4.83
2022-11-12T11:37:02.594Z,4.13
2022-11-12T11:47:57.686Z,3.03
2022-11-12T11:58:40.762Z,5.43
2022-11-12T12:09:24.904Z,4.60
2022-11-12T12:19:58.757Z,6.90
2022-11-12T12:30:24.917Z,7.00
2022-11-12T12:40:50.130Z,7.30
2022-11-12T12:51:14.288Z,2.60
2022-11-12T13:01:37.485Z,6.93
2022-11-12T13:12:18.228Z,4.63
2022-11-12T13:22:52.577Z,3.70
2022-11-12T13:33:27.208Z,6.00
2022-11-12T13:43:49.904Z,3.50
2022-11-12T13:54:36.239Z,4.37
2022-11-12T14:04:58.780Z,3.77
2022-11-12T14:15:43.947Z,5.80
2022-11-12T14:26:05.681Z,6.73
2022-11-12T14:36:30.770Z,5.37
2022-11-12T14:46:55.837Z,4.37
2022-11-12T14:57:24.169Z,7.00
2022-11-12T15:07:55.217Z,4.40
2022-11-12T15:18:20.580Z,8.90
2022-11-12T15:28:42.448Z,4.83
2022-11-12T15:39:14.473Z,9.90
2022-11-12T15:49:36.173Z,4.73
2022-11-12T16:00:07.865Z,5.43
2022-11-12T16:10:30.477Z,6.40
2022-11-12T16:20:53.636Z,5.20
2022-11-12T16:31:15.941Z,6.17
2022-11-12T16:41:39.068Z,6.10
2022-11-12T16:52:00.690Z,7.27
2022-11-12T17:02:23.600Z,4.73
2022-11-12T17:12:49.245Z,4.97
2022-11-12T17:23:12.097Z,4.53
2022-11-12T17:33:34.624Z,7.37
2022-11-12T17:43:58.172Z,6.63
2022-11-12T17:54:20.000Z,8.67
2022-11-12T18:04:43.065Z,8.73
2022-11-12T18:15:05.275Z,7.60
2022-11-12T18:25:28.895Z,10.20
2022-11-12T18:36:01.464Z,13.33
2022-11-12T18:46:25.056Z,10.07
2022-11-12T18:56:47.887Z,21.40
2022-11-12T19:07:10.618Z,10.83
2022-11-12T19:17:32.926Z,15.13
2022-11-12T19:27:56.055Z,13.97
2022-11-12T19:38:17.689Z,15.03
2022-11-12T19:48:40.976Z,11.87
2022-11-12T19:59:02.968Z,16.10
2022-11-12T20:09:26.021Z,15.13
2022-11-12T20:19:47.699Z,8.77
2022-11-12T20:30:11.989Z,7.10
2022-11-12T20:40:34.133Z,7.30
2022-11-12T20:51:22.544Z,9.37
2022-11-12T21:01:45.975Z,6.07
2022-11-12T21:12:09.111Z,5.47
2022-11-12T21:22:30.693Z,10.03
2022-11-12T21:32:53.631Z,5.43
2022-11-12T21:43:15.613Z,6.10
2022-11-12T21:53:39.518Z,6.57
2022-11-12T22:04:05.122Z,7.83
2022-11-12T22:14:28.413Z,7.63
2022-11-12T22:24:50.187Z,9.40
2022-11-12T22:35:13.401Z,9.87
2022-11-12T22:45:36.253Z,8.60
2022-11-12T22:56:04.145Z,7.27
2022-11-12T23:06:26.956Z,8.60
2022-11-12T23:16:50.050Z,9.20
2022-11-12T23:27:11.707Z,8.60
2022-11-12T23:37:34.870Z,12.77
2022-11-12T23:47:57.325Z,13.67
2022-11-12T23:58:20.253Z,11.37
